sensor_id;sensor_type;location;lat;lon;timestamp;P1;durP1;ratioP1;P2;durP2;ratioP2
6426;SDS011;3246;42.664;23.308;2022-07-29T00:00:36;9.73;;;8.88;;
6426;SDS011;3246;42.664;23.308;2022-07-29T00:03:02;9.68;;;8.75;;
6426;SDS011;3246;42.664;23.308;2022-07-29T00:05:29;9.95;;;8.93;;
6426;SDS011;3246;42.664;23.308;2022-07-29T00:07:57;9.52;;;8.73;;
6426;SDS011;3246;42.664;23.308;2022-07-29T00:10:24;11.40;;;9.68;;
6426;SDS011;3246;42.664;23.308;2022-07-29T00:12:50;9.48;;;8.75;;
6426;SDS011;3246;42.664;23.308;2022-07-29T00:15:17;9.77;;;8.88;;
6426;SDS011;3246;42.664;23.308;2022-07-29T00:17:43;10.18;;;9.43;;
6426;SDS011;3246;42.664;23.308;2022-07-29T00:20:10;9.52;;;8.63;;
6426;SDS011;3246;42.664;23.308;2022-07-29T00:22:37;12.00;;;9.68;;
6426;SDS011;3246;42.664;23.308;2022-07-29T00:25:05;10.82;;;9.93;;
6426;SDS011;3246;42.664;23.308;2022-07-29T00:27:32;9.40;;;8.55;;
6426;SDS011;3246;42.664;23.308;2022-07-29T00:29:59;9.55;;;8.65;;
6426;SDS011;3246;42.664;23.308;2022-07-29T00:32:25;11.35;;;9.25;;
6426;SDS011;3246;42.664;23.308;2022-07-29T00:34:52;10.25;;;9.40;;
6426;SDS011;3246;42.664;23.308;2022-07-29T00:37:36;9.38;;;8.57;;
6426;SDS011;3246;42.664;23.308;2022-07-29T00:40:02;9.68;;;8.40;;
6426;SDS011;3246;42.664;23.308;2022-07-29T00:42:30;10.20;;;9.32;;
6426;SDS011;3246;42.664;23.308;2022-07-29T00:44:57;11.30;;;10.13;;
6426;SDS011;3246;42.664;23.308;2022-07-29T00:47:24;12.77;;;11.25;;
6426;SDS011;3246;42.664;23.308;2022-07-29T00:49:50;13.95;;;12.65;;
6426;SDS011;3246;42.664;23.308;2022-07-29T00:52:17;18.42;;;13.15;;
6426;SDS011;3246;42.664;23.308;2022-07-29T00:54:43;12.73;;;11.57;;
6426;SDS011;3246;42.664;23.308;2022-07-29T00:57:10;15.07;;;12.80;;
6426;SDS011;3246;42.664;23.308;2022-07-29T00:59:38;13.75;;;12.45;;
6426;SDS011;3246;42.664;23.308;2022-07-29T01:02:05;13.02;;;11.93;;
6426;SDS011;3246;42.664;23.308;2022-07-29T01:04:32;16.42;;;13.35;;
6426;SDS011;3246;42.664;23.308;2022-07-29T01:06:59;14.38;;;12.93;;
6426;SDS011;3246;42.664;23.308;2022-07-29T01:09:26;14.75;;;12.85;;
6426;SDS011;3246;42.664;23.308;2022-07-29T01:11:53;14.45;;;12.98;;
6426;SDS011;3246;42.664;23.308;2022-07-29T01:14:20;14.23;;;12.93;;
6426;SDS011;3246;42.664;23.308;2022-07-29T01:16:50;13.90;;;12.50;;
6426;SDS011;3246;42.664;23.308;2022-07-29T01:19:26;18.83;;;12.63;;
6426;SDS011;3246;42.664;23.308;2022-07-29T01:21:57;12.60;;;11.50;;
6426;SDS011;3246;42.664;23.308;2022-07-29T01:24:30;12.43;;;11.32;;
6426;SDS011;3246;42.664;23.308;2022-07-29T01:27:01;14.70;;;12.32;;
6426;SDS011;3246;42.664;23.308;2022-07-29T01:29:33;13.38;;;12.07;;
6426;SDS011;3246;42.664;23.308;2022-07-29T01:32:01;13.68;;;12.20;;
6426;SDS011;3246;42.664;23.308;2022-07-29T01:34:31;18.15;;;12.68;;
6426;SDS011;3246;42.664;23.308;2022-07-29T01:37:01;17.45;;;12.02;;
6426;SDS011;3246;42.664;23.308;2022-07-29T01:39:31;13.32;;;12.02;;
6426;SDS011;3246;42.664;23.308;2022-07-29T01:41:59;13.70;;;12.50;;
6426;SDS011;3246;42.664;23.308;2022-07-29T01:44:30;13.88;;;12.52;;
6426;SDS011;3246;42.664;23.308;2022-07-29T01:47:00;13.43;;;12.02;;
6426;SDS011;3246;42.664;23.308;2022-07-29T01:49:28;14.27;;;12.88;;
6426;SDS011;3246;42.664;23.308;2022-07-29T01:51:57;13.07;;;11.85;;
6426;SDS011;3246;42.664;23.308;2022-07-29T01:54:26;15.70;;;12.82;;
6426;SDS011;3246;42.664;23.308;2022-07-29T01:56:55;14.32;;;12.57;;
6426;SDS011;3246;42.664;23.308;2022-07-29T01:59:22;13.82;;;12.52;;
6426;SDS011;3246;42.664;23.308;2022-07-29T02:01:50;15.40;;;12.90;;
6426;SDS011;3246;42.664;23.308;2022-07-29T02:04:20;17.52;;;11.80;;
6426;SDS011;3246;42.664;23.308;2022-07-29T02:06:47;14.05;;;12.75;;
6426;SDS011;3246;42.664;23.308;2022-07-29T02:09:15;14.02;;;12.60;;
6426;SDS011;3246;42.664;23.308;2022-07-29T02:11:42;14.18;;;12.70;;
6426;SDS011;3246;42.664;23.308;2022-07-29T02:14:13;15.05;;;12.48;;
6426;SDS011;3246;42.664;23.308;2022-07-29T02:16:40;13.40;;;12.20;;
6426;SDS011;3246;42.664;23.308;2022-07-29T02:19:08;14.80;;;13.40;;
6426;SDS011;3246;42.664;23.308;2022-07-29T02:21:38;12.90;;;11.57;;
6426;SDS011;3246;42.664;23.308;2022-07-29T02:24:05;13.45;;;12.05;;
6426;SDS011;3246;42.664;23.308;2022-07-29T02:26:33;13.75;;;12.35;;
6426;SDS011;3246;42.664;23.308;2022-07-29T02:29:00;12.43;;;11.25;;
6426;SDS011;3246;42.664;23.308;2022-07-29T02:31:28;14.98;;;13.45;;
6426;SDS011;3246;42.664;23.308;2022-07-29T02:33:56;12.77;;;11.32;;
6426;SDS011;3246;42.664;23.308;2022-07-29T02:36:23;14.90;;;12.13;;
6426;SDS011;3246;42.664;23.308;2022-07-29T02:38:52;12.57;;;11.38;;
6426;SDS011;3246;42.664;23.308;2022-07-29T02:41:23;14.20;;;12.27;;
6426;SDS011;3246;42.664;23.308;2022-07-29T02:44:03;14.57;;;13.07;;
6426;SDS011;3246;42.664;23.308;2022-07-29T02:46:31;13.45;;;11.93;;
6426;SDS011;3246;42.664;23.308;2022-07-29T02:49:01;14.02;;;12.35;;
6426;SDS011;3246;42.664;23.308;2022-07-29T02:51:32;14.35;;;12.95;;
6426;SDS011;3246;42.664;23.308;2022-07-29T02:54:01;13.60;;;12.18;;
6426;SDS011;3246;42.664;23.308;2022-07-29T02:56:31;15.05;;;13.63;;
6426;SDS011;3246;42.664;23.308;2022-07-29T02:59:00;14.18;;;11.65;;
6426;SDS011;3246;42.664;23.308;2022-07-29T03:01:30;14.60;;;11.88;;
6426;SDS011;3246;42.664;23.308;2022-07-29T03:03:57;12.77;;;11.27;;
6426;SDS011;3246;42.664;23.308;2022-07-29T03:06:26;13.88;;;11.35;;
6426;SDS011;3246;42.664;23.308;2022-07-29T03:08:54;12.95;;;11.60;;
6426;SDS011;3246;42.664;23.308;2022-07-29T03:11:22;15.13;;;12.00;;
6426;SDS011;3246;42.664;23.308;2022-07-29T03:13:49;14.05;;;12.70;;
6426;SDS011;3246;42.664;23.308;2022-07-29T03:16:16;14.15;;;12.88;;
6426;SDS011;3246;42.664;23.308;2022-07-29T03:18:44;17.20;;;14.55;;
6426;SDS011;3246;42.664;23.308;2022-07-29T03:21:11;15.32;;;14.02;;
6426;SDS011;3246;42.664;23.308;2022-07-29T03:23:38;16.88;;;15.18;;
6426;SDS011;3246;42.664;23.308;2022-07-29T03:26:09;18.38;;;16.20;;
6426;SDS011;3246;42.664;23.308;2022-07-29T03:28:37;21.42;;;16.30;;
6426;SDS011;3246;42.664;23.308;2022-07-29T03:31:03;20.40;;;16.45;;
6426;SDS011;3246;42.664;23.308;2022-07-29T03:33:30;16.67;;;15.07;;
6426;SDS011;3246;42.664;23.308;2022-07-29T03:35:57;14.80;;;12.85;;
6426;SDS011;3246;42.664;23.308;2022-07-29T03:38:23;14.57;;;13.10;;
6426;SDS011;3246;42.664;23.308;2022-07-29T03:40:51;17.83;;;13.60;;
6426;SDS011;3246;42.664;23.308;2022-07-29T03:43:19;14.70;;;13.15;;
6426;SDS011;3246;42.664;23.308;2022-07-29T03:45:49;15.20;;;13.75;;
6426;SDS011;3246;42.664;23.308;2022-07-29T03:48:17;14.77;;;13.00;;
6426;SDS011;3246;42.664;23.308;2022-07-29T03:50:45;15.35;;;13.80;;
6426;SDS011;3246;42.664;23.308;2022-07-29T03:53:12;15.40;;;13.80;;
6426;SDS011;3246;42.664;23.308;2022-07-29T03:55:40;16.65;;;14.43;;
6426;SDS011;3246;42.664;23.308;2022-07-29T03:58:07;16.02;;;14.40;;
6426;SDS011;3246;42.664;23.308;2022-07-29T04:00:35;16.70;;;14.00;;
6426;SDS011;3246;42.664;23.308;2022-07-29T04:03:04;15.80;;;14.32;;
6426;SDS011;3246;42.664;23.308;2022-07-29T04:05:31;15.77;;;14.25;;
6426;SDS011;3246;42.664;23.308;2022-07-29T04:07:57;17.50;;;13.85;;
6426;SDS011;3246;42.664;23.308;2022-07-29T04:10:24;17.35;;;14.98;;
6426;SDS011;3246;42.664;23.308;2022-07-29T04:12:51;18.30;;;15.05;;
6426;SDS011;3246;42.664;23.308;2022-07-29T04:15:17;19.55;;;15.27;;
6426;SDS011;3246;42.664;23.308;2022-07-29T04:17:44;21.70;;;15.15;;
6426;SDS011;3246;42.664;23.308;2022-07-29T04:20:12;103.03;;;70.55;;
6426;SDS011;3246;42.664;23.308;2022-07-29T04:22:39;95.57;;;71.15;;
6426;SDS011;3246;42.664;23.308;2022-07-29T04:25:05;128.35;;;114.97;;
6426;SDS011;3246;42.664;23.308;2022-07-29T04:27:32;25.55;;;22.98;;
6426;SDS011;3246;42.664;23.308;2022-07-29T04:29:58;19.20;;;16.25;;
6426;SDS011;3246;42.664;23.308;2022-07-29T04:32:25;19.92;;;14.43;;
6426;SDS011;3246;42.664;23.308;2022-07-29T04:34:52;16.83;;;14.57;;
6426;SDS011;3246;42.664;23.308;2022-07-29T04:37:20;17.52;;;14.55;;
6426;SDS011;3246;42.664;23.308;2022-07-29T04:39:47;16.50;;;14.90;;
6426;SDS011;3246;42.664;23.308;2022-07-29T04:42:13;17.95;;;14.35;;
6426;SDS011;3246;42.664;23.308;2022-07-29T04:44:40;16.38;;;14.88;;
6426;SDS011;3246;42.664;23.308;2022-07-29T04:47:07;16.20;;;14.63;;
6426;SDS011;3246;42.664;23.308;2022-07-29T04:49:34;16.08;;;14.40;;
6426;SDS011;3246;42.664;23.308;2022-07-29T04:52:00;18.80;;;15.85;;
6426;SDS011;3246;42.664;23.308;2022-07-29T04:54:28;18.02;;;14.88;;
6426;SDS011;3246;42.664;23.308;2022-07-29T04:56:55;19.88;;;17.48;;
6426;SDS011;3246;42.664;23.308;2022-07-29T04:59:21;18.75;;;15.18;;
6426;SDS011;3246;42.664;23.308;2022-07-29T05:01:48;17.38;;;14.82;;
6426;SDS011;3246;42.664;23.308;2022-07-29T05:04:14;15.40;;;13.88;;
6426;SDS011;3246;42.664;23.308;2022-07-29T05:06:41;17.80;;;14.45;;
6426;SDS011;3246;42.664;23.308;2022-07-29T05:09:07;18.35;;;13.68;;
6426;SDS011;3246;42.664;23.308;2022-07-29T05:11:35;13.93;;;12.45;;
6426;SDS011;3246;42.664;23.308;2022-07-29T05:14:02;13.52;;;12.40;;
6426;SDS011;3246;42.664;23.308;2022-07-29T05:16:28;16.77;;;13.63;;
6426;SDS011;3246;42.664;23.308;2022-07-29T05:18:55;15.20;;;12.88;;
6426;SDS011;3246;42.664;23.308;2022-07-29T05:21:21;13.45;;;11.77;;
6426;SDS011;3246;42.664;23.308;2022-07-29T05:23:48;13.10;;;11.77;;
6426;SDS011;3246;42.664;23.308;2022-07-29T05:26:15;13.10;;;11.80;;
6426;SDS011;3246;42.664;23.308;2022-07-29T05:28:43;12.50;;;11.25;;
6426;SDS011;3246;42.664;23.308;2022-07-29T05:31:09;13.95;;;11.05;;
6426;SDS011;3246;42.664;23.308;2022-07-29T05:33:36;11.82;;;10.30;;
6426;SDS011;3246;42.664;23.308;2022-07-29T05:36:03;13.23;;;9.02;;
6426;SDS011;3246;42.664;23.308;2022-07-29T05:38:30;13.20;;;9.68;;
6426;SDS011;3246;42.664;23.308;2022-07-29T05:40:57;9.20;;;8.27;;
6426;SDS011;3246;42.664;23.308;2022-07-29T05:43:24;10.57;;;8.20;;
6426;SDS011;3246;42.664;23.308;2022-07-29T05:45:52;9.35;;;8.38;;
6426;SDS011;3246;42.664;23.308;2022-07-29T05:48:19;11.30;;;9.00;;
6426;SDS011;3246;42.664;23.308;2022-07-29T05:50:45;10.88;;;8.63;;
6426;SDS011;3246;42.664;23.308;2022-07-29T05:53:12;10.98;;;8.93;;
6426;SDS011;3246;42.664;23.308;2022-07-29T05:55:38;9.13;;;8.40;;
6426;SDS011;3246;42.664;23.308;2022-07-29T05:58:05;10.60;;;9.00;;
6426;SDS011;3246;42.664;23.308;2022-07-29T06:00:32;10.35;;;9.23;;
6426;SDS011;3246;42.664;23.308;2022-07-29T06:03:00;10.30;;;9.27;;
6426;SDS011;3246;42.664;23.308;2022-07-29T06:05:27;10.40;;;8.93;;
6426;SDS011;3246;42.664;23.308;2022-07-29T06:07:54;8.30;;;7.65;;
6426;SDS011;3246;42.664;23.308;2022-07-29T06:10:20;7.70;;;7.20;;
6426;SDS011;3246;42.664;23.308;2022-07-29T06:12:47;6.85;;;6.18;;
6426;SDS011;3246;42.664;23.308;2022-07-29T06:15:13;6.78;;;6.28;;
6426;SDS011;3246;42.664;23.308;2022-07-29T06:17:40;8.95;;;6.63;;
6426;SDS011;3246;42.664;23.308;2022-07-29T06:20:09;6.93;;;6.43;;
6426;SDS011;3246;42.664;23.308;2022-07-29T06:22:36;7.32;;;6.65;;
6426;SDS011;3246;42.664;23.308;2022-07-29T06:25:02;7.70;;;7.00;;
6426;SDS011;3246;42.664;23.308;2022-07-29T06:27:29;6.85;;;6.15;;
6426;SDS011;3246;42.664;23.308;2022-07-29T06:29:56;7.05;;;6.28;;
6426;SDS011;3246;42.664;23.308;2022-07-29T06:32:22;8.93;;;6.82;;
6426;SDS011;3246;42.664;23.308;2022-07-29T06:34:49;7.30;;;6.80;;
6426;SDS011;3246;42.664;23.308;2022-07-29T06:37:17;9.45;;;6.43;;
6426;SDS011;3246;42.664;23.308;2022-07-29T06:39:43;6.10;;;5.60;;
6426;SDS011;3246;42.664;23.308;2022-07-29T06:42:10;7.43;;;6.10;;
6426;SDS011;3246;42.664;23.308;2022-07-29T06:44:36;15.40;;;6.78;;
6426;SDS011;3246;42.664;23.308;2022-07-29T06:47:03;9.75;;;6.25;;
6426;SDS011;3246;42.664;23.308;2022-07-29T06:49:30;6.90;;;6.38;;
6426;SDS011;3246;42.664;23.308;2022-07-29T06:51:56;8.07;;;6.32;;
6426;SDS011;3246;42.664;23.308;2022-07-29T06:54:24;11.70;;;6.20;;
6426;SDS011;3246;42.664;23.308;2022-07-29T06:56:51;6.97;;;6.28;;
6426;SDS011;3246;42.664;23.308;2022-07-29T06:59:17;7.32;;;5.95;;
6426;SDS011;3246;42.664;23.308;2022-07-29T07:01:44;6.25;;;5.72;;
6426;SDS011;3246;42.664;23.308;2022-07-29T07:04:11;9.77;;;5.65;;
6426;SDS011;3246;42.664;23.308;2022-07-29T07:06:38;9.93;;;5.60;;
6426;SDS011;3246;42.664;23.308;2022-07-29T07:09:05;9.05;;;6.60;;
6426;SDS011;3246;42.664;23.308;2022-07-29T07:11:33;5.03;;;4.63;;
6426;SDS011;3246;42.664;23.308;2022-07-29T07:13:59;7.80;;;6.00;;
6426;SDS011;3246;42.664;23.308;2022-07-29T07:16:26;11.93;;;5.65;;
6426;SDS011;3246;42.664;23.308;2022-07-29T07:18:52;7.05;;;6.40;;
6426;SDS011;3246;42.664;23.308;2022-07-29T07:21:19;6.40;;;5.80;;
6426;SDS011;3246;42.664;23.308;2022-07-29T07:23:45;6.05;;;5.60;;
6426;SDS011;3246;42.664;23.308;2022-07-29T07:26:12;9.63;;;7.55;;
6426;SDS011;3246;42.664;23.308;2022-07-29T07:28:40;7.07;;;6.03;;
6426;SDS011;3246;42.664;23.308;2022-07-29T07:31:07;6.97;;;6.05;;
6426;SDS011;3246;42.664;23.308;2022-07-29T07:33:33;7.65;;;6.00;;
6426;SDS011;3246;42.664;23.308;2022-07-29T07:36:00;6.57;;;5.97;;
6426;SDS011;3246;42.664;23.308;2022-07-29T07:38:26;6.47;;;5.97;;
6426;SDS011;3246;42.664;23.308;2022-07-29T07:40:53;6.78;;;6.15;;
6426;SDS011;3246;42.664;23.308;2022-07-29T07:43:19;7.20;;;6.40;;
6426;SDS011;3246;42.664;23.308;2022-07-29T07:45:48;6.15;;;5.65;;
6426;SDS011;3246;42.664;23.308;2022-07-29T07:48:14;6.45;;;5.78;;
6426;SDS011;3246;42.664;23.308;2022-07-29T07:50:41;6.55;;;5.18;;
6426;SDS011;3246;42.664;23.308;2022-07-29T07:53:08;4.88;;;4.47;;
6426;SDS011;3246;42.664;23.308;2022-07-29T07:55:39;5.10;;;4.43;;
6426;SDS011;3246;42.664;23.308;2022-07-29T07:58:05;5.50;;;4.55;;
6426;SDS011;3246;42.664;23.308;2022-07-29T08:00:34;5.03;;;4.63;;
6426;SDS011;3246;42.664;23.308;2022-07-29T08:03:02;6.10;;;5.60;;
6426;SDS011;3246;42.664;23.308;2022-07-29T08:05:29;7.40;;;5.35;;
6426;SDS011;3246;42.664;23.308;2022-07-29T08:07:55;6.00;;;5.22;;
6426;SDS011;3246;42.664;23.308;2022-07-29T08:10:22;5.63;;;5.22;;
6426;SDS011;3246;42.664;23.308;2022-07-29T08:13:02;4.63;;;4.32;;
6426;SDS011;3246;42.664;23.308;2022-07-29T08:15:29;5.38;;;4.97;;
6426;SDS011;3246;42.664;23.308;2022-07-29T08:17:55;4.93;;;4.53;;
6426;SDS011;3246;42.664;23.308;2022-07-29T08:20:23;4.38;;;4.07;;
6426;SDS011;3246;42.664;23.308;2022-07-29T08:22:50;4.53;;;4.07;;
6426;SDS011;3246;42.664;23.308;2022-07-29T08:25:17;5.47;;;4.25;;
6426;SDS011;3246;42.664;23.308;2022-07-29T08:27:45;7.85;;;5.30;;
6426;SDS011;3246;42.664;23.308;2022-07-29T08:30:12;4.50;;;4.18;;
6426;SDS011;3246;42.664;23.308;2022-07-29T08:32:38;4.50;;;4.18;;
6426;SDS011;3246;42.664;23.308;2022-07-29T08:35:05;3.70;;;3.50;;
6426;SDS011;3246;42.664;23.308;2022-07-29T08:37:33;6.40;;;3.63;;
6426;SDS011;3246;42.664;23.308;2022-07-29T08:40:00;6.10;;;5.00;;
6426;SDS011;3246;42.664;23.308;2022-07-29T08:42:26;4.22;;;4.00;;
6426;SDS011;3246;42.664;23.308;2022-07-29T08:44:53;4.57;;;4.15;;
6426;SDS011;3246;42.664;23.308;2022-07-29T08:47:20;4.95;;;4.55;;
6426;SDS011;3246;42.664;23.308;2022-07-29T08:49:47;5.13;;;4.28;;
6426;SDS011;3246;42.664;23.308;2022-07-29T08:52:13;4.32;;;4.03;;
6426;SDS011;3246;42.664;23.308;2022-07-29T08:54:43;4.70;;;4.40;;
6426;SDS011;3246;42.664;23.308;2022-07-29T08:57:09;4.45;;;4.05;;
6426;SDS011;3246;42.664;23.308;2022-07-29T08:59:37;3.83;;;3.53;;
6426;SDS011;3246;42.664;23.308;2022-07-29T09:02:05;8.18;;;4.60;;
6426;SDS011;3246;42.664;23.308;2022-07-29T09:04:38;3.53;;;3.22;;
6426;SDS011;3246;42.664;23.308;2022-07-29T09:07:05;5.95;;;4.30;;
6426;SDS011;3246;42.664;23.308;2022-07-29T09:09:32;5.63;;;4.60;;
6426;SDS011;3246;42.664;23.308;2022-07-29T09:12:00;3.67;;;3.47;;
6426;SDS011;3246;42.664;23.308;2022-07-29T09:14:29;6.47;;;3.85;;
6426;SDS011;3246;42.664;23.308;2022-07-29T09:16:55;4.00;;;3.70;;
6426;SDS011;3246;42.664;23.308;2022-07-29T09:19:23;5.60;;;4.30;;
6426;SDS011;3246;42.664;23.308;2022-07-29T09:21:50;4.05;;;3.75;;
6426;SDS011;3246;42.664;23.308;2022-07-29T09:24:41;6.30;;;4.18;;
6426;SDS011;3246;42.664;23.308;2022-07-29T09:27:11;3.95;;;3.50;;
6426;SDS011;3246;42.664;23.308;2022-07-29T09:29:43;4.57;;;4.00;;
6426;SDS011;3246;42.664;23.308;2022-07-29T09:32:10;4.03;;;3.72;;
6426;SDS011;3246;42.664;23.308;2022-07-29T09:34:37;3.63;;;3.35;;
6426;SDS011;3246;42.664;23.308;2022-07-29T09:37:03;4.80;;;3.75;;
6426;SDS011;3246;42.664;23.308;2022-07-29T09:39:31;4.30;;;4.00;;
6426;SDS011;3246;42.664;23.308;2022-07-29T09:41:59;7.03;;;4.20;;
6426;SDS011;3246;42.664;23.308;2022-07-29T09:44:27;5.25;;;3.55;;
6426;SDS011;3246;42.664;23.308;2022-07-29T09:47:06;4.85;;;4.45;;
6426;SDS011;3246;42.664;23.308;2022-07-29T09:49:33;8.25;;;5.38;;
6426;SDS011;3246;42.664;23.308;2022-07-29T09:52:04;3.88;;;3.58;;
6426;SDS011;3246;42.664;23.308;2022-07-29T09:54:31;4.82;;;4.50;;
6426;SDS011;3246;42.664;23.308;2022-07-29T09:57:02;4.22;;;3.83;;
6426;SDS011;3246;42.664;23.308;2022-07-29T09:59:30;4.45;;;4.15;;
6426;SDS011;3246;42.664;23.308;2022-07-29T10:01:56;5.28;;;4.88;;
6426;SDS011;3246;42.664;23.308;2022-07-29T10:04:23;4.10;;;3.83;;
6426;SDS011;3246;42.664;23.308;2022-07-29T10:06:56;4.72;;;4.38;;
6426;SDS011;3246;42.664;23.308;2022-07-29T10:09:23;4.45;;;4.15;;
6426;SDS011;3246;42.664;23.308;2022-07-29T10:12:02;4.68;;;4.38;;
6426;SDS011;3246;42.664;23.308;2022-07-29T10:14:30;4.93;;;4.53;;
6426;SDS011;3246;42.664;23.308;2022-07-29T10:16:57;5.43;;;4.88;;
6426;SDS011;3246;42.664;23.308;2022-07-29T10:19:25;5.45;;;5.00;;
6426;SDS011;3246;42.664;23.308;2022-07-29T10:21:51;4.80;;;4.50;;
6426;SDS011;3246;42.664;23.308;2022-07-29T10:24:18;4.75;;;4.30;;
6426;SDS011;3246;42.664;23.308;2022-07-29T10:26:45;8.43;;;4.57;;
6426;SDS011;3246;42.664;23.308;2022-07-29T10:29:13;4.50;;;4.10;;
6426;SDS011;3246;42.664;23.308;2022-07-29T10:31:43;4.47;;;4.07;;
6426;SDS011;3246;42.664;23.308;2022-07-29T10:34:13;3.80;;;3.50;;
6426;SDS011;3246;42.664;23.308;2022-07-29T10:36:46;6.82;;;6.32;;
6426;SDS011;3246;42.664;23.308;2022-07-29T10:39:19;5.05;;;4.63;;
6426;SDS011;3246;42.664;23.308;2022-07-29T10:41:56;5.70;;;5.25;;
6426;SDS011;3246;42.664;23.308;2022-07-29T10:44:25;7.03;;;6.10;;
6426;SDS011;3246;42.664;23.308;2022-07-29T10:46:54;5.88;;;4.65;;
6426;SDS011;3246;42.664;23.308;2022-07-29T10:49:21;4.85;;;4.45;;
6426;SDS011;3246;42.664;23.308;2022-07-29T10:51:53;4.53;;;4.22;;
6426;SDS011;3246;42.664;23.308;2022-07-29T10:54:35;13.32;;;8.32;;
6426;SDS011;3246;42.664;23.308;2022-07-29T10:57:10;7.30;;;5.05;;
6426;SDS011;3246;42.664;23.308;2022-07-29T10:59:36;3.50;;;3.20;;
6426;SDS011;3246;42.664;23.308;2022-07-29T11:02:07;3.88;;;3.58;;
6426;SDS011;3246;42.664;23.308;2022-07-29T11:05:00;4.57;;;3.85;;
6426;SDS011;3246;42.664;23.308;2022-07-29T11:07:28;4.13;;;3.83;;
6426;SDS011;3246;42.664;23.308;2022-07-29T11:12:47;5.10;;;4.75;;
6426;SDS011;3246;42.664;23.308;2022-07-29T11:15:14;4.82;;;4.45;;
6426;SDS011;3246;42.664;23.308;2022-07-29T11:20:37;7.18;;;4.43;;
6426;SDS011;3246;42.664;23.308;2022-07-29T11:23:17;3.47;;;3.20;;
6426;SDS011;3246;42.664;23.308;2022-07-29T11:25:43;4.43;;;3.63;;
6426;SDS011;3246;42.664;23.308;2022-07-29T11:28:10;4.55;;;4.07;;
6426;SDS011;3246;42.664;23.308;2022-07-29T11:30:48;4.68;;;4.20;;
6426;SDS011;3246;42.664;23.308;2022-07-29T11:33:28;6.60;;;4.85;;
6426;SDS011;3246;42.664;23.308;2022-07-29T11:36:08;5.38;;;4.43;;
6426;SDS011;3246;42.664;23.308;2022-07-29T11:38:35;5.05;;;4.55;;
6426;SDS011;3246;42.664;23.308;2022-07-29T11:41:21;4.13;;;3.85;;
6426;SDS011;3246;42.664;23.308;2022-07-29T11:43:49;4.57;;;4.28;;
6426;SDS011;3246;42.664;23.308;2022-07-29T11:46:18;4.25;;;4.00;;
6426;SDS011;3246;42.664;23.308;2022-07-29T11:48:44;4.20;;;3.63;;
6426;SDS011;3246;42.664;23.308;2022-07-29T11:51:12;4.60;;;4.30;;
6426;SDS011;3246;42.664;23.308;2022-07-29T11:53:39;5.47;;;4.97;;
6426;SDS011;3246;42.664;23.308;2022-07-29T11:56:08;5.60;;;5.20;;
6426;SDS011;3246;42.664;23.308;2022-07-29T11:58:34;5.82;;;5.43;;
6426;SDS011;3246;42.664;23.308;2022-07-29T12:01:02;9.45;;;4.70;;
6426;SDS011;3246;42.664;23.308;2022-07-29T12:03:29;8.85;;;7.65;;
6426;SDS011;3246;42.664;23.308;2022-07-29T12:05:56;4.75;;;4.35;;
6426;SDS011;3246;42.664;23.308;2022-07-29T12:08:24;4.53;;;4.22;;
6426;SDS011;3246;42.664;23.308;2022-07-29T12:10:51;5.03;;;4.70;;
6426;SDS011;3246;42.664;23.308;2022-07-29T12:13:19;7.57;;;6.97;;
6426;SDS011;3246;42.664;23.308;2022-07-29T12:15:51;4.95;;;4.55;;
6426;SDS011;3246;42.664;23.308;2022-07-29T12:18:18;5.07;;;4.72;;
6426;SDS011;3246;42.664;23.308;2022-07-29T12:20:45;6.40;;;5.90;;
6426;SDS011;3246;42.664;23.308;2022-07-29T12:23:12;6.57;;;6.13;;
6426;SDS011;3246;42.664;23.308;2022-07-29T12:25:41;7.82;;;5.90;;
6426;SDS011;3246;42.664;23.308;2022-07-29T12:28:10;5.50;;;5.03;;
6426;SDS011;3246;42.664;23.308;2022-07-29T12:30:38;5.50;;;5.00;;
6426;SDS011;3246;42.664;23.308;2022-07-29T12:33:19;5.78;;;5.25;;
6426;SDS011;3246;42.664;23.308;2022-07-29T12:35:47;5.38;;;4.97;;
6426;SDS011;3246;42.664;23.308;2022-07-29T12:38:14;5.43;;;4.93;;
6426;SDS011;3246;42.664;23.308;2022-07-29T12:40:43;9.80;;;9.00;;
6426;SDS011;3246;42.664;23.308;2022-07-29T12:43:10;6.50;;;6.00;;
6426;SDS011;3246;42.664;23.308;2022-07-29T12:45:37;6.18;;;5.68;;
6426;SDS011;3246;42.664;23.308;2022-07-29T12:48:06;7.35;;;6.80;;
6426;SDS011;3246;42.664;23.308;2022-07-29T12:50:33;6.32;;;5.82;;
6426;SDS011;3246;42.664;23.308;2022-07-29T12:53:10;7.15;;;6.55;;
6426;SDS011;3246;42.664;23.308;2022-07-29T12:55:39;5.57;;;5.07;;
6426;SDS011;3246;42.664;23.308;2022-07-29T12:58:07;6.45;;;5.47;;
6426;SDS011;3246;42.664;23.308;2022-07-29T13:00:34;6.68;;;6.05;;
6426;SDS011;3246;42.664;23.308;2022-07-29T13:03:01;6.80;;;6.20;;
6426;SDS011;3246;42.664;23.308;2022-07-29T13:05:38;10.38;;;9.43;;
6426;SDS011;3246;42.664;23.308;2022-07-29T13:08:12;7.93;;;7.32;;
6426;SDS011;3246;42.664;23.308;2022-07-29T13:10:39;8.38;;;7.75;;
6426;SDS011;3246;42.664;23.308;2022-07-29T13:13:07;7.20;;;6.60;;
6426;SDS011;3246;42.664;23.308;2022-07-29T13:15:35;6.20;;;5.80;;
6426;SDS011;3246;42.664;23.308;2022-07-29T13:18:02;7.70;;;7.10;;
6426;SDS011;3246;42.664;23.308;2022-07-29T13:20:29;7.05;;;6.50;;
6426;SDS011;3246;42.664;23.308;2022-07-29T13:22:56;6.72;;;6.03;;
6426;SDS011;3246;42.664;23.308;2022-07-29T13:25:26;6.13;;;5.72;;
6426;SDS011;3246;42.664;23.308;2022-07-29T13:27:53;6.88;;;6.47;;
6426;SDS011;3246;42.664;23.308;2022-07-29T13:30:22;5.85;;;5.10;;
6426;SDS011;3246;42.664;23.308;2022-07-29T13:32:48;7.03;;;6.35;;
6426;SDS011;3246;42.664;23.308;2022-07-29T13:35:15;10.02;;;9.02;;
6426;SDS011;3246;42.664;23.308;2022-07-29T13:37:42;7.05;;;6.45;;
6426;SDS011;3246;42.664;23.308;2022-07-29T13:40:09;6.30;;;5.15;;
6426;SDS011;3246;42.664;23.308;2022-07-29T13:42:35;6.25;;;5.82;;
6426;SDS011;3246;42.664;23.308;2022-07-29T13:45:02;6.57;;;6.03;;
6426;SDS011;3246;42.664;23.308;2022-07-29T13:47:31;6.05;;;5.65;;
6426;SDS011;3246;42.664;23.308;2022-07-29T13:49:57;6.00;;;5.50;;
6426;SDS011;3246;42.664;23.308;2022-07-29T13:52:24;6.45;;;5.80;;
6426;SDS011;3246;42.664;23.308;2022-07-29T13:54:50;12.52;;;5.88;;
6426;SDS011;3246;42.664;23.308;2022-07-29T13:57:17;6.15;;;5.75;;
6426;SDS011;3246;42.664;23.308;2022-07-29T13:59:44;9.45;;;8.55;;
6426;SDS011;3246;42.664;23.308;2022-07-29T14:02:10;9.02;;;8.13;;
6426;SDS011;3246;42.664;23.308;2022-07-29T14:04:39;7.07;;;6.47;;
6426;SDS011;3246;42.664;23.308;2022-07-29T14:07:06;6.38;;;5.97;;
6426;SDS011;3246;42.664;23.308;2022-07-29T14:09:33;6.43;;;5.68;;
6426;SDS011;3246;42.664;23.308;2022-07-29T14:11:59;5.65;;;5.25;;
6426;SDS011;3246;42.664;23.308;2022-07-29T14:14:27;5.95;;;5.43;;
6426;SDS011;3246;42.664;23.308;2022-07-29T14:16:54;7.82;;;6.13;;
6426;SDS011;3246;42.664;23.308;2022-07-29T14:19:22;6.40;;;5.90;;
6426;SDS011;3246;42.664;23.308;2022-07-29T14:21:50;6.53;;;6.03;;
6426;SDS011;3246;42.664;23.308;2022-07-29T14:24:16;6.53;;;5.95;;
6426;SDS011;3246;42.664;23.308;2022-07-29T14:26:43;12.65;;;6.20;;
6426;SDS011;3246;42.664;23.308;2022-07-29T14:29:09;6.30;;;5.80;;
6426;SDS011;3246;42.664;23.308;2022-07-29T14:31:36;6.30;;;5.80;;
6426;SDS011;3246;42.664;23.308;2022-07-29T14:34:03;6.00;;;5.60;;
6426;SDS011;3246;42.664;23.308;2022-07-29T14:36:29;5.63;;;4.82;;
6426;SDS011;3246;42.664;23.308;2022-07-29T14:38:57;6.60;;;6.10;;
6426;SDS011;3246;42.664;23.308;2022-07-29T14:41:24;6.78;;;6.18;;
6426;SDS011;3246;42.664;23.308;2022-07-29T14:43:53;6.93;;;6.38;;
6426;SDS011;3246;42.664;23.308;2022-07-29T14:46:19;7.72;;;7.03;;
6426;SDS011;3246;42.664;23.308;2022-07-29T14:48:46;7.57;;;6.97;;
6426;SDS011;3246;42.664;23.308;2022-07-29T14:51:12;7.43;;;6.82;;
6426;SDS011;3246;42.664;23.308;2022-07-29T14:53:39;6.55;;;6.03;;
6426;SDS011;3246;42.664;23.308;2022-07-29T14:56:07;5.80;;;5.40;;
6426;SDS011;3246;42.664;23.308;2022-07-29T14:58:33;7.18;;;6.63;;
6426;SDS011;3246;42.664;23.308;2022-07-29T15:01:00;7.82;;;7.22;;